createdAt,value
2023-03-18T00:00:14.558Z,3.17
2023-03-18T00:02:41.079Z,3.15
2023-03-18T00:05:09.633Z,3.97
2023-03-18T00:07:36.615Z,3.00
2023-03-18T00:10:06.291Z,3.97
2023-03-18T00:12:32.656Z,4.03
2023-03-18T00:14:59.324Z,4.15
2023-03-18T00:17:25.719Z,3.30
2023-03-18T00:19:52.109Z,3.47
2023-03-18T00:22:18.454Z,3.78
2023-03-18T00:24:44.932Z,3.35
2023-03-18T00:27:12.621Z,4.15
2023-03-18T00:29:39.017Z,3.88
2023-03-18T00:32:06.254Z,4.28
2023-03-18T00:34:32.619Z,3.58
2023-03-18T00:36:58.974Z,3.40
2023-03-18T00:39:26.033Z,3.88
2023-03-18T00:41:54.188Z,3.95
2023-03-18T00:44:22.194Z,3.53
2023-03-18T00:46:48.762Z,4.07
2023-03-18T00:49:15.144Z,3.92
2023-03-18T00:51:41.542Z,3.72
2023-03-18T00:54:10.717Z,6.47
2023-03-18T00:56:37.426Z,7.18
2023-03-18T00:59:04.143Z,11.55
2023-03-18T01:01:32.859Z,12.73
2023-03-18T01:03:59.594Z,11.35
2023-03-18T01:06:27.607Z,9.43
2023-03-18T01:08:54.498Z,9.38
2023-03-18T01:11:21.124Z,5.72
2023-03-18T01:13:47.864Z,5.88
2023-03-18T01:16:15.033Z,5.03
2023-03-18T01:18:43.118Z,5.57
2023-03-18T01:21:10.530Z,5.03
2023-03-18T01:23:37.481Z,4.60
2023-03-18T01:26:04.264Z,4.00
2023-03-18T01:28:30.783Z,4.25
2023-03-18T01:30:57.219Z,4.30
2023-03-18T01:33:23.738Z,4.72
2023-03-18T01:35:55.963Z,4.55
2023-03-18T01:38:23.563Z,4.97
2023-03-18T01:40:50.467Z,4.28
2023-03-18T01:43:19.204Z,3.97
2023-03-18T01:45:49.067Z,3.55
2023-03-18T01:48:17.213Z,4.07
2023-03-18T01:50:44.849Z,3.80
2023-03-18T01:53:16.362Z,4.00
2023-03-18T01:55:44.878Z,3.50
2023-03-18T01:58:17.813Z,4.25
2023-03-18T02:00:49.285Z,4.50
2023-03-18T02:03:15.683Z,3.80
2023-03-18T02:05:42.483Z,3.53
2023-03-18T02:08:09.091Z,3.45
2023-03-18T02:10:37.425Z,3.60
2023-03-18T02:13:06.742Z,4.55
2023-03-18T02:15:35.391Z,3.67
2023-03-18T02:18:06.169Z,4.07
2023-03-18T02:20:45.406Z,3.80
2023-03-18T02:23:21.237Z,4.53
2023-03-18T02:25:53.838Z,4.28
2023-03-18T02:28:24.597Z,4.13
2023-03-18T02:30:53.889Z,4.90
2023-03-18T02:33:23.876Z,4.85
2023-03-18T02:35:54.086Z,4.43
2023-03-18T02:38:20.515Z,4.70
2023-03-18T02:40:46.857Z,4.68
2023-03-18T02:43:21.320Z,5.28
2023-03-18T02:45:59.143Z,6.78
2023-03-18T02:48:28.544Z,6.45
2023-03-18T02:50:56.192Z,6.05
2023-03-18T02:53:22.554Z,6.97
2023-03-18T02:55:48.918Z,6.85
2023-03-18T02:58:15.371Z,6.68
2023-03-18T03:00:43.054Z,7.38
2023-03-18T03:03:09.811Z,6.53
2023-03-18T03:05:36.426Z,7.72
2023-03-18T03:08:03.142Z,6.82
2023-03-18T03:10:29.823Z,7.03
2023-03-18T03:12:56.669Z,7.38
2023-03-18T03:15:23.102Z,6.90
2023-03-18T03:17:50.783Z,6.57
2023-03-18T03:20:17.210Z,7.20
2023-03-18T03:22:43.713Z,7.25
2023-03-18T03:25:10.732Z,6.90
2023-03-18T03:27:37.350Z,6.95
2023-03-18T03:30:05.622Z,7.05
2023-03-18T03:32:32.052Z,6.90
2023-03-18T03:34:59.761Z,7.63
2023-03-18T03:37:26.097Z,7.95
2023-03-18T03:39:52.542Z,7.43
2023-03-18T03:42:19.464Z,8.32
2023-03-18T03:44:45.968Z,8.65
2023-03-18T03:47:12.630Z,9.45
2023-03-18T03:49:39.068Z,7.65
2023-03-18T03:52:07.006Z,9.23
2023-03-18T03:54:33.452Z,8.70
2023-03-18T03:56:59.921Z,8.13
2023-03-18T03:59:26.254Z,9.20
2023-03-18T04:01:52.683Z,9.43
2023-03-18T04:04:19.083Z,8.52
2023-03-18T04:06:45.513Z,9.32
2023-03-18T04:09:13.225Z,10.15
2023-03-18T04:11:39.568Z,9.50
2023-03-18T04:14:05.904Z,10.18
2023-03-18T04:16:32.331Z,10.88
2023-03-18T04:18:58.711Z,9.98
2023-03-18T04:21:25.275Z,11.85
2023-03-18T04:23:51.696Z,11.73
2023-03-18T04:26:19.404Z,10.65
2023-03-18T04:28:45.743Z,12.05
2023-03-18T04:31:12.472Z,11.02
2023-03-18T04:33:38.916Z,11.68
2023-03-18T04:36:05.861Z,11.63
2023-03-18T04:38:32.263Z,10.10
2023-03-18T04:40:58.702Z,12.18
2023-03-18T04:43:26.376Z,11.55
2023-03-18T04:45:52.901Z,12.15
2023-03-18T04:48:20.533Z,12.75
2023-03-18T04:50:46.878Z,11.65
2023-03-18T04:53:13.288Z,10.63
2023-03-18T04:55:39.753Z,10.98
2023-03-18T04:58:06.137Z,11.23
2023-03-18T05:00:33.870Z,11.55
2023-03-18T05:03:00.515Z,11.32
2023-03-18T05:05:27.060Z,11.32
2023-03-18T05:07:53.459Z,9.90
2023-03-18T05:10:20.041Z,10.45
2023-03-18T05:12:46.435Z,10.77
2023-03-18T05:15:13.138Z,9.70
2023-03-18T05:17:41.573Z,10.02
2023-03-18T05:20:09.316Z,10.60
2023-03-18T05:22:36.364Z,10.52
2023-03-18T05:25:02.815Z,10.40
2023-03-18T05:27:29.184Z,9.23
2023-03-18T05:29:55.712Z,9.48
2023-03-18T05:32:22.081Z,10.23
2023-03-18T05:34:50.053Z,8.35
2023-03-18T05:37:16.866Z,8.30
2023-03-18T05:39:44.996Z,9.02
2023-03-18T05:42:11.581Z,8.70
2023-03-18T05:44:37.954Z,9.07
2023-03-18T05:47:04.917Z,8.02
2023-03-18T05:49:31.319Z,7.90
2023-03-18T05:51:59.024Z,7.65
2023-03-18T05:54:25.410Z,8.02
2023-03-18T05:56:51.837Z,8.40
2023-03-18T05:59:18.646Z,8.07
2023-03-18T06:01:45.504Z,8.43
2023-03-18T06:04:12.034Z,8.10
2023-03-18T06:06:38.431Z,8.45
2023-03-18T06:09:06.319Z,8.57
2023-03-18T06:11:32.759Z,8.60
2023-03-18T06:13:59.124Z,8.15
2023-03-18T06:16:25.673Z,8.15
2023-03-18T06:18:52.067Z,7.85
2023-03-18T06:21:18.418Z,7.50
2023-03-18T06:23:44.752Z,7.63
2023-03-18T06:26:12.697Z,7.80
2023-03-18T06:28:39.072Z,8.32
2023-03-18T06:31:05.513Z,8.15
2023-03-18T06:33:31.887Z,7.63
2023-03-18T06:35:58.396Z,7.72
2023-03-18T06:38:24.774Z,7.95
2023-03-18T06:40:51.166Z,7.72
2023-03-18T06:43:19.008Z,7.25
2023-03-18T06:45:45.360Z,7.82
2023-03-18T06:48:11.724Z,7.50
2023-03-18T06:50:38.202Z,7.07
2023-03-18T06:53:04.534Z,7.95
2023-03-18T06:55:31.143Z,7.30
2023-03-18T06:57:58.327Z,8.45
2023-03-18T07:00:26.634Z,5.95
2023-03-18T07:02:52.979Z,6.38
2023-03-18T07:05:19.606Z,6.45
2023-03-18T07:07:46.447Z,6.82
2023-03-18T07:10:18.918Z,7.10
2023-03-18T07:12:45.283Z,6.47
2023-03-18T07:15:12.205Z,6.13
2023-03-18T07:17:40.040Z,5.20
2023-03-18T07:20:07.245Z,5.35
2023-03-18T07:22:33.640Z,5.60
2023-03-18T07:24:59.991Z,5.07
2023-03-18T07:27:26.421Z,6.05
2023-03-18T07:29:52.892Z,5.68
2023-03-18T07:32:19.237Z,5.00
2023-03-18T07:34:46.935Z,5.30
2023-03-18T07:37:13.531Z,5.32
2023-03-18T07:39:39.874Z,5.93
2023-03-18T07:42:06.534Z,5.75
2023-03-18T07:44:32.887Z,4.75
2023-03-18T07:46:59.211Z,5.45
2023-03-18T07:49:25.752Z,5.35
2023-03-18T07:51:53.445Z,5.25
2023-03-18T07:54:19.792Z,4.85
2023-03-18T07:56:46.256Z,4.93
2023-03-18T07:59:12.658Z,4.60
2023-03-18T08:01:39.008Z,5.13
2023-03-18T08:04:05.590Z,4.55
2023-03-18T08:06:32.045Z,5.15
2023-03-18T08:08:59.727Z,4.43
2023-03-18T08:11:26.224Z,5.20
2023-03-18T08:13:52.720Z,4.40
2023-03-18T08:16:19.166Z,4.53
2023-03-18T08:18:45.582Z,4.47
2023-03-18T08:21:11.921Z,4.55
2023-03-18T08:23:38.335Z,4.80
2023-03-18T08:26:06.130Z,5.38
2023-03-18T08:28:32.616Z,3.97
2023-03-18T08:30:59.058Z,3.83
2023-03-18T08:33:26.613Z,4.63
2023-03-18T08:35:53.171Z,4.38
2023-03-18T08:38:19.534Z,4.18
2023-03-18T08:40:46.146Z,4.93
2023-03-18T08:43:13.979Z,4.50
2023-03-18T08:45:40.439Z,4.25
2023-03-18T08:48:07.406Z,4.50
2023-03-18T08:50:34.204Z,3.85
2023-03-18T08:53:00.948Z,3.70
2023-03-18T08:55:29.441Z,4.35
2023-03-18T08:57:55.863Z,4.88
2023-03-18T09:00:24.284Z,4.65
2023-03-18T09:02:51.284Z,4.63
2023-03-18T09:05:17.640Z,4.93
2023-03-18T09:07:43.965Z,4.95
2023-03-18T09:10:11.507Z,5.28
2023-03-18T09:12:37.888Z,4.70
2023-03-18T09:15:05.496Z,5.18
2023-03-18T09:17:50.989Z,4.50
2023-03-18T09:20:19.662Z,4.93
2023-03-18T09:22:46.857Z,4.03
2023-03-18T09:25:13.323Z,4.28
2023-03-18T09:27:39.752Z,4.68
2023-03-18T09:30:08.101Z,4.43
2023-03-18T09:32:35.821Z,4.47
2023-03-18T09:35:02.223Z,4.38
2023-03-18T09:37:28.597Z,4.80
2023-03-18T09:39:54.970Z,4.93
2023-03-18T09:42:36.766Z,4.95
2023-03-18T09:45:09.623Z,5.68
2023-03-18T09:47:52.057Z,5.20
2023-03-18T09:50:26.938Z,5.07
2023-03-18T09:53:05.313Z,5.20
2023-03-18T09:55:37.031Z,5.20
2023-03-18T09:58:12.807Z,4.97
2023-03-18T10:00:39.824Z,5.47
2023-03-18T10:03:15.149Z,6.10
2023-03-18T10:05:47.713Z,5.80
2023-03-18T10:08:19.493Z,5.05
2023-03-18T10:10:47.361Z,4.60
2023-03-18T10:13:19.200Z,4.53
2023-03-18T10:15:48.937Z,5.35
2023-03-18T10:18:23.714Z,4.45
2023-03-18T10:21:04.668Z,4.32
2023-03-18T10:23:39.908Z,4.57
2023-03-18T10:26:15.142Z,5.47
2023-03-18T10:28:55.060Z,5.65
2023-03-18T10:31:30.000Z,4.97
2023-03-18T10:34:00.947Z,5.20
2023-03-18T10:36:34.946Z,4.40
2023-03-18T10:39:02.285Z,4.65
2023-03-18T10:41:31.442Z,4.97
2023-03-18T10:44:02.362Z,4.45
2023-03-18T10:46:30.347Z,4.07
2023-03-18T10:49:03.032Z,4.57
2023-03-18T10:51:34.920Z,4.32
2023-03-18T10:54:10.027Z,4.72
2023-03-18T10:56:36.702Z,4.35
2023-03-18T10:59:11.650Z,4.00
2023-03-18T11:01:39.408Z,4.35
2023-03-18T11:04:12.909Z,4.38
2023-03-18T11:06:43.687Z,4.13
2023-03-18T11:09:12.731Z,4.00
2023-03-18T11:11:40.451Z,4.25
2023-03-18T11:14:12.828Z,5.18
2023-03-18T11:16:41.374Z,4.60
2023-03-18T11:19:28.301Z,4.13
2023-03-18T11:22:03.987Z,4.20
2023-03-18T11:24:31.180Z,4.78
2023-03-18T11:26:57.558Z,4.82
2023-03-18T11:29:27.071Z,4.95
2023-03-18T11:31:55.753Z,5.40
2023-03-18T11:34:24.199Z,4.80
2023-03-18T11:36:56.612Z,4.40
2023-03-18T11:39:24.342Z,4.80
2023-03-18T11:41:52.319Z,3.63
2023-03-18T11:44:25.225Z,4.00
2023-03-18T11:46:55.755Z,4.30
2023-03-18T11:49:25.659Z,3.90
2023-03-18T11:51:57.697Z,4.13
2023-03-18T11:54:41.706Z,3.72
2023-03-18T11:57:13.519Z,4.82
2023-03-18T11:59:53.453Z,4.32
2023-03-18T12:02:46.547Z,4.05
2023-03-18T12:05:30.954Z,3.72
2023-03-18T12:08:06.919Z,3.20
2023-03-18T12:10:37.115Z,3.70
2023-03-18T12:13:15.474Z,3.65
2023-03-18T12:15:49.317Z,3.85
2023-03-18T12:18:37.450Z,3.97
2023-03-18T12:21:21.294Z,4.13
2023-03-18T12:24:01.327Z,3.90
2023-03-18T12:26:39.999Z,3.22
2023-03-18T12:29:46.201Z,3.75
2023-03-18T12:32:24.538Z,4.78
2023-03-18T12:35:06.080Z,3.70
2023-03-18T12:37:45.342Z,4.82
2023-03-18T12:40:24.855Z,4.28
2023-03-18T12:43:07.446Z,4.13
2023-03-18T12:45:37.753Z,5.15
2023-03-18T12:48:09.344Z,4.22
2023-03-18T12:50:39.469Z,3.78
2023-03-18T12:53:15.474Z,5.55
2023-03-18T12:55:46.878Z,4.78
2023-03-18T12:58:17.743Z,5.57
2023-03-18T13:00:47.552Z,4.22
2023-03-18T13:03:28.090Z,4.00
2023-03-18T13:06:00.340Z,4.40
2023-03-18T13:08:53.161Z,4.03
2023-03-18T13:11:46.220Z,3.83
2023-03-18T13:14:21.346Z,3.93
2023-03-18T13:16:49.223Z,4.78
2023-03-18T13:19:15.911Z,4.40
2023-03-18T13:21:46.129Z,4.32
2023-03-18T13:24:37.005Z,3.60
2023-03-18T13:27:27.577Z,3.22
2023-03-18T13:30:02.391Z,4.43
2023-03-18T13:32:42.570Z,3.97
2023-03-18T13:35:47.331Z,4.25
2023-03-18T13:38:47.115Z,2.72
2023-03-18T13:41:59.804Z,3.38
2023-03-18T13:44:34.100Z,3.33
2023-03-18T13:47:04.237Z,3.33
2023-03-18T13:49:32.352Z,3.90
2023-03-18T13:52:00.232Z,4.45
2023-03-18T13:54:34.428Z,4.30
2023-03-18T14:00:13.888Z,4.05
2023-03-18T14:02:45.640Z,4.25
2023-03-18T14:05:36.055Z,3.15
2023-03-18T14:08:04.950Z,2.72
2023-03-18T14:10:31.430Z,3.50
2023-03-18T14:13:27.344Z,3.17
2023-03-18T14:15:56.494Z,3.60
2023-03-18T14:18:28.015Z,3.20
2023-03-18T14:20:59.779Z,4.10
2023-03-18T14:23:35.561Z,3.83
2023-03-18T14:26:04.841Z,4.00
2023-03-18T14:28:41.877Z,3.90
2023-03-18T14:31:15.987Z,3.70
2023-03-18T14:33:58.736Z,4.20
2023-03-18T14:36:44.934Z,4.35
2023-03-18T14:39:16.353Z,3.83
2023-03-18T14:41:46.325Z,4.53
2023-03-18T14:44:21.188Z,3.80
2023-03-18T14:46:51.511Z,3.85
2023-03-18T14:49:33.380Z,3.45
2023-03-18T14:52:01.695Z,3.85
2023-03-18T14:54:32.065Z,3.88
2023-03-18T14:57:03.706Z,3.92
2023-03-18T14:59:31.404Z,5.22
2023-03-18T15:01:58.421Z,6.38
2023-03-18T15:04:27.088Z,5.43
2023-03-18T15:06:56.578Z,4.32
2023-03-18T15:09:25.591Z,4.18
2023-03-18T15:11:52.098Z,3.85
2023-03-18T15:14:23.904Z,4.43
2023-03-18T15:16:53.825Z,4.43
2023-03-18T15:19:21.162Z,3.67
2023-03-18T15:21:48.059Z,4.05
2023-03-18T15:24:19.926Z,3.80
2023-03-18T15:26:56.391Z,3.13
2023-03-18T15:29:28.161Z,3.17
2023-03-18T15:32:10.060Z,2.88
2023-03-18T15:34:38.152Z,4.55
2023-03-18T15:37:25.470Z,3.40
2023-03-18T15:39:51.838Z,4.22
2023-03-18T15:42:19.586Z,4.38
2023-03-18T15:44:51.704Z,3.33
2023-03-18T15:47:23.039Z,2.88
2023-03-18T15:49:52.771Z,2.47
2023-03-18T15:52:22.398Z,2.50
2023-03-18T15:54:48.769Z,2.53
2023-03-18T15:57:27.971Z,2.55
2023-03-18T15:59:54.339Z,2.55
2023-03-18T16:02:22.046Z,2.70
2023-03-18T16:04:48.762Z,4.53
2023-03-18T16:07:17.370Z,3.33
2023-03-18T16:09:43.758Z,2.95
2023-03-18T16:12:17.220Z,3.03
2023-03-18T16:14:45.856Z,2.83
2023-03-18T16:17:12.592Z,2.95
2023-03-18T16:19:40.350Z,3.00
2023-03-18T16:22:07.155Z,2.80
2023-03-18T16:24:33.500Z,3.38
2023-03-18T16:27:00.122Z,3.25
2023-03-18T16:29:29.665Z,3.35
2023-03-18T16:31:56.456Z,3.33
2023-03-18T16:34:23.660Z,3.10
2023-03-18T16:36:51.568Z,3.00
2023-03-18T16:39:19.881Z,3.10
2023-03-18T16:41:47.113Z,3.15
2023-03-18T16:44:15.446Z,3.17
2023-03-18T16:46:44.868Z,3.80
2023-03-18T16:49:14.409Z,4.35
2023-03-18T16:51:40.810Z,4.25
2023-03-18T16:54:17.706Z,4.28
2023-03-18T16:56:44.104Z,3.55
2023-03-18T16:59:12.890Z,3.55
2023-03-18T17:01:39.286Z,3.50
2023-03-18T17:04:14.404Z,4.00
2023-03-18T17:06:41.105Z,3.65
2023-03-18T17:09:07.525Z,3.60
2023-03-18T17:11:35.308Z,3.63
2023-03-18T17:14:01.864Z,3.55
2023-03-18T17:16:28.286Z,4.00
2023-03-18T17:18:54.684Z,4.38
2023-03-18T17:21:21.357Z,4.10
2023-03-18T17:23:47.778Z,4.03
2023-03-18T17:26:14.164Z,4.40
2023-03-18T17:28:44.467Z,3.25
2023-03-18T17:31:11.995Z,4.03
2023-03-18T17:33:38.399Z,3.75
2023-03-18T17:36:07.191Z,4.13
2023-03-18T17:38:33.604Z,3.67
2023-03-18T17:41:00.877Z,3.58
2023-03-18T17:43:28.957Z,3.75
2023-03-18T17:45:57.537Z,3.50
2023-03-18T17:48:25.594Z,3.75
2023-03-18T17:50:54.931Z,3.85
2023-03-18T17:53:27.434Z,3.80
2023-03-18T17:55:54.847Z,3.88
2023-03-18T17:58:23.244Z,4.25
2023-03-18T18:00:50.207Z,4.10
2023-03-18T18:03:22.779Z,5.43
2023-03-18T18:05:49.150Z,5.32
2023-03-18T18:08:16.330Z,4.10
2023-03-18T18:10:43.128Z,4.85
2023-03-18T18:13:14.079Z,4.30
2023-03-18T18:15:40.438Z,4.00
2023-03-18T18:18:13.292Z,4.55
2023-03-18T18:20:40.985Z,4.55
2023-03-18T18:23:12.636Z,4.25
2023-03-18T18:25:38.982Z,3.60
2023-03-18T18:28:16.808Z,5.07
2023-03-18T18:30:43.175Z,4.95
2023-03-18T18:33:09.635Z,4.32
2023-03-18T18:35:36.337Z,4.38
2023-03-18T18:38:04.195Z,3.78
2023-03-18T18:40:30.547Z,3.58
2023-03-18T18:42:57.081Z,3.45
2023-03-18T18:45:23.588Z,3.08
2023-03-18T18:47:50.137Z,3.40
2023-03-18T18:50:18.343Z,3.95
2023-03-18T18:52:45.019Z,3.90
2023-03-18T18:55:12.976Z,3.78
2023-03-18T18:57:41.865Z,3.65
2023-03-18T19:00:15.633Z,3.97
2023-03-18T19:02:41.999Z,3.40
2023-03-18T19:05:08.708Z,3.65
2023-03-18T19:07:38.147Z,4.47
2023-03-18T19:10:05.481Z,3.47
2023-03-18T19:12:33.149Z,3.42
2023-03-18T19:14:59.760Z,3.47
2023-03-18T19:17:26.197Z,3.85
2023-03-18T19:19:52.894Z,3.80
2023-03-18T19:22:20.460Z,3.75
2023-03-18T19:24:47.855Z,3.80
2023-03-18T19:27:20.150Z,3.97
2023-03-18T19:29:48.398Z,3.33
2023-03-18T19:32:16.421Z,4.30
2023-03-18T19:34:42.778Z,4.10
2023-03-18T19:37:16.170Z,4.05
2023-03-18T19:39:42.684Z,4.00
2023-03-18T19:42:13.200Z,3.30
2023-03-18T19:44:39.765Z,4.20
2023-03-18T19:47:15.100Z,4.18
2023-03-18T19:49:41.555Z,3.55
2023-03-18T19:52:16.769Z,3.22
2023-03-18T19:54:43.773Z,3.53
2023-03-18T19:57:14.790Z,4.35
2023-03-18T19:59:41.596Z,5.68
2023-03-18T20:02:20.005Z,8.15
2023-03-18T20:04:46.577Z,7.97
2023-03-18T20:07:12.965Z,8.35
2023-03-18T20:09:39.363Z,10.07
2023-03-18T20:12:06.441Z,9.90
2023-03-18T20:14:33.527Z,10.15
2023-03-18T20:17:00.254Z,9.20
2023-03-18T20:19:27.953Z,9.98
2023-03-18T20:21:54.465Z,7.28
2023-03-18T20:24:28.655Z,7.90
2023-03-18T20:26:55.054Z,5.95
2023-03-18T20:29:21.707Z,6.07
2023-03-18T20:31:48.450Z,6.68
2023-03-18T20:34:14.841Z,5.72
2023-03-18T20:36:42.726Z,6.07
2023-03-18T20:39:18.630Z,4.90
2023-03-18T20:41:45.025Z,4.97
2023-03-18T20:44:12.535Z,4.78
2023-03-18T20:46:39.123Z,4.53
2023-03-18T20:49:05.647Z,5.03
2023-03-18T20:51:34.366Z,4.22
2023-03-18T20:54:02.932Z,3.83
2023-03-18T20:56:29.792Z,4.78
2023-03-18T20:58:56.359Z,3.88
2023-03-18T21:01:23.745Z,3.40
2023-03-18T21:03:50.609Z,3.45
2023-03-18T21:06:17.144Z,4.22
2023-03-18T21:08:43.727Z,16.50
2023-03-18T21:11:20.604Z,12.77
2023-03-18T21:13:47.843Z,9.77
2023-03-18T21:16:16.759Z,6.32
2023-03-18T21:18:43.795Z,5.68
2023-03-18T21:21:20.803Z,5.00
2023-03-18T21:23:47.896Z,3.72
2023-03-18T21:26:15.949Z,3.70
2023-03-18T21:28:42.520Z,3.60
2023-03-18T21:31:21.648Z,3.90
2023-03-18T21:33:48.256Z,3.55
2023-03-18T21:36:15.052Z,3.55
2023-03-18T21:38:41.541Z,3.50
2023-03-18T21:41:19.441Z,3.30
2023-03-18T21:43:46.414Z,3.63
2023-03-18T21:46:15.936Z,3.92
2023-03-18T21:48:42.467Z,4.00
2023-03-18T21:51:31.772Z,4.30
2023-03-18T21:54:04.496Z,6.05
2023-03-18T21:56:32.435Z,7.43
2023-03-18T21:58:58.937Z,6.28
2023-03-18T22:01:30.122Z,8.70
2023-03-18T22:03:56.678Z,7.32
2023-03-18T22:06:23.243Z,7.68
2023-03-18T22:08:49.766Z,8.90
2023-03-18T22:11:18.141Z,7.90
2023-03-18T22:13:46.208Z,8.68
2023-03-18T22:16:14.576Z,9.52
2023-03-18T22:18:41.824Z,9.00
2023-03-18T22:21:16.644Z,5.78
2023-03-18T22:23:43.160Z,5.72
2023-03-18T22:26:14.158Z,5.07
2023-03-18T22:28:41.003Z,5.53
2023-03-18T22:31:16.712Z,4.82
2023-03-18T22:33:43.436Z,4.30
2023-03-18T22:36:12.119Z,4.22
2023-03-18T22:38:38.717Z,4.00
2023-03-18T22:41:05.856Z,5.13
2023-03-18T22:43:34.297Z,4.72
2023-03-18T22:46:02.785Z,4.28
2023-03-18T22:48:31.934Z,4.50
2023-03-18T22:50:59.457Z,4.63
2023-03-18T22:53:28.820Z,4.03
2023-03-18T22:55:56.969Z,4.15
2023-03-18T22:58:25.975Z,4.10
2023-03-18T23:00:53.582Z,3.97
2023-03-18T23:03:21.799Z,4.38
2023-03-18T23:05:52.198Z,3.70
2023-03-18T23:08:19.111Z,3.97
2023-03-18T23:10:46.727Z,4.55
2023-03-18T23:13:15.956Z,4.30
2023-03-18T23:15:43.296Z,4.10
2023-03-18T23:18:13.385Z,4.05
2023-03-18T23:20:40.089Z,4.28
2023-03-18T23:23:07.983Z,4.50
2023-03-18T23:25:35.549Z,4.20
2023-03-18T23:28:02.583Z,4.13
2023-03-18T23:30:29.229Z,4.82
2023-03-18T23:32:56.104Z,4.43
2023-03-18T23:35:23.090Z,4.78
2023-03-18T23:37:49.661Z,4.88
2023-03-18T23:40:17.808Z,4.70
2023-03-18T23:42:44.523Z,4.53
2023-03-18T23:45:11.888Z,4.70
2023-03-18T23:47:38.973Z,4.20
2023-03-18T23:50:07.200Z,4.80
2023-03-18T23:52:34.099Z,4.85
2023-03-18T23:55:00.847Z,4.32
2023-03-18T23:57:28.707Z,4.28
2023-03-18T23:59:55.209Z,4.63
